F/V Harvestor — WDC8229 — position and weather

sailwx.info

Track history (hours):
 
Tides and Currents Weather Stations Pressure Air Temp Water Temp Dewpoint Dewpoint Depression Visibility Wind Speed Wind Dir Waves Ship Positions

F/V Harvestor

Owner: F/V HARVESTOR INC., EDMONDS, WA. More information available from US FCC via Universal Licensing System and Coast Guard Vessel Documentation Center.

Last reported at 2015-Feb-01 23:33 UTC. Time now 2015-Feb-02 00:17 UTC.
Position N 48°10' W 123°11'.

Length 40 m.

Type: Fishing. MMSI: 367083650.

Date/timePositionNaut miles runAvg speedWind from/ knotsBaromVisibWave heightAir tempDewpointWater temp
2015-Feb-01 23:33N 48°10' W 123°11'3 7.3
2015-Feb-01 23:13N 48°09' W 123°15'5 7.3
2015-Feb-01 22:34N 48°08' W 123°22'2 2.4
2015-Feb-01 21:34N 48°08' W 123°25'0 0.0
2015-Feb-01 20:37N 48°08' W 123°25'0 0.0
2015-Feb-01 20:34N 48°08' W 123°25'0 0.1
2015-Feb-01 20:02N 48°08' W 123°25'0 0.1
2015-Feb-01 19:33N 48°08' W 123°25'0 0.0
2015-Feb-01 18:33N 48°08' W 123°25'0 0.0
2015-Feb-01 17:33N 48°08' W 123°25'0 0.0
2015-Feb-01 16:33N 48°08' W 123°25'0 0.0
2015-Feb-01 15:35N 48°08' W 123°25'0 1.5
2015-Feb-01 15:34N 48°08' W 123°25'0 0.3
2015-Feb-01 15:25N 48°08' W 123°25'0 0.0
2015-Feb-01 14:34N 48°08' W 123°25'0 0.0
2015-Feb-01 14:23N 48°08' W 123°25'0 0.0
2015-Feb-01 13:34N 48°08' W 123°25'6 5.9
2015-Feb-01 12:33N 48°10' W 123°17'2 8.6
2015-Feb-01 12:19N 48°11' W 123°14'6 7.7
2015-Feb-01 11:33N 48°13' W 123°06'7 7.7
2015-Feb-01 10:39N 48°12' W 122°55'1 7.9
2015-Feb-01 10:33N 48°12' W 122°54'4 7.3
2015-Feb-01 10:04N 48°12' W 122°49'3 5.3
2015-Feb-01 09:34N 48°11' W 122°45'4 3.9
2015-Feb-01 08:33N 48°08' W 122°41'5 5.2
2015-Feb-01 07:33N 48°03' W 122°38'6 6.4
2015-Feb-01 06:34N 47°58' W 122°33'0 9.2
2015-Feb-01 06:33N 47°58' W 122°33'7 7.1
2015-Feb-01 05:34N 47°52' W 122°28'1 7.7
2015-Feb-01 05:28N 47°51' W 122°27'7 7.7
2015-Feb-01 04:33N 47°44' W 122°26'1 7.3
2015-Feb-01 04:29N 47°44' W 122°26'6 6.7
2015-Feb-01 03:33N 47°38' W 122°23'0 2.1
2015-Feb-01 03:29N 47°38' W 122°23'0 0.1
2015-Feb-01 02:33N 47°38' W 122°23'0 0.0
2015-Feb-01 02:29N 47°38' W 122°23'0 0.0
2015-Feb-01 01:33N 47°38' W 122°23'0 0.0
2015-Feb-01 01:29N 47°38' W 122°23'0 0.0
2015-Feb-01 00:33N 47°38' W 122°23'0 0.0
2015-Feb-01 00:28N 47°38' W 122°23'0 0.0
2015-Jan-31 23:33N 47°38' W 122°23'0 0.0
2015-Jan-31 23:29N 47°38' W 122°23'0 0.0
2015-Jan-31 22:33N 47°38' W 122°23'0 0.0
2015-Jan-31 22:28N 47°38' W 122°23'0 0.0
2015-Jan-31 21:33N 47°38' W 122°23'0 0.0
2015-Jan-31 21:33N 47°38' W 122°23'0 0.0
2015-Jan-31 20:33N 47°38' W 122°23'0 0.0
2015-Jan-31 20:33N 47°38' W 122°23'0 0.0
2015-Jan-31 19:33N 47°38' W 122°23'0 0.0
2015-Jan-31 18:33N 47°38' W 122°23'0 0.0
2015-Jan-31 18:32N 47°38' W 122°23'0 0.0
2015-Jan-31 17:33N 47°38' W 122°23'0 0.0
2015-Jan-31 17:33N 47°38' W 122°23'0 0.0
2015-Jan-31 16:33N 47°38' W 122°23'0 0.0
2015-Jan-31 16:33N 47°38' W 122°23'0 0.0
2015-Jan-31 15:33N 47°38' W 122°23'0 0.0
2015-Jan-31 15:33N 47°38' W 122°23'0 0.0
2015-Jan-31 14:33N 47°38' W 122°23'0 0.0
2015-Jan-31 14:06N 47°38' W 122°23'0 0.0
2015-Jan-31 13:33N 47°38' W 122°23'0 0.0
2015-Jan-31 13:31N 47°38' W 122°23'0 0.0
2015-Jan-31 12:33N 47°38' W 122°23'0 0.0
2015-Jan-31 12:31N 47°38' W 122°23'0 0.0
2015-Jan-31 11:33N 47°38' W 122°23'0 0.0
2015-Jan-31 11:30N 47°38' W 122°23'0 0.0
2015-Jan-31 10:33N 47°38' W 122°23'0 0.0
2015-Jan-31 10:25N 47°38' W 122°23'0 0.0
2015-Jan-31 09:33N 47°38' W 122°23'0 0.0
2015-Jan-31 09:31N 47°38' W 122°23'0 0.0
2015-Jan-31 08:33N 47°38' W 122°23'0 0.0
2015-Jan-31 08:29N 47°38' W 122°23'0 0.0
2015-Jan-31 07:33N 47°38' W 122°23'0 0.0
2015-Jan-31 07:29N 47°38' W 122°23'0 0.0
2015-Jan-31 06:33N 47°38' W 122°23'0 0.0
2015-Jan-31 06:07N 47°38' W 122°23'0 0.0
2015-Jan-31 05:33N 47°38' W 122°23'0 0.0
2015-Jan-31 05:33N 47°38' W 122°23'0 0.0
2015-Jan-31 04:33N 47°38' W 122°23'0 0.0
2015-Jan-31 04:32N 47°38' W 122°23'0 0.0
2015-Jan-31 03:33N 47°38' W 122°23'0 0.0
2015-Jan-31 03:32N 47°38' W 122°23'0 0.0
2015-Jan-31 02:37N 47°38' W 122°23'0 0.0
2015-Jan-31 02:33N 47°38' W 122°23'0 0.0
2015-Jan-31 01:33N 47°38' W 122°23'0 0.0
2015-Jan-31 01:11N 47°38' W 122°23'0 0.0
2015-Jan-31 00:36N 47°38' W 122°23'0 0.0
2015-Jan-31 00:33N 47°38' W 122°23'0 0.0
2015-Jan-30 23:33N 47°38' W 122°23'0 0.0
2015-Jan-30 23:31N 47°38' W 122°23'0 0.0
2015-Jan-30 22:33N 47°38' W 122°23'0 0.0
2015-Jan-30 22:31N 47°38' W 122°23'0 0.0
2015-Jan-30 21:33N 47°38' W 122°23'0 0.0
2015-Jan-30 21:31N 47°38' W 122°23'0 0.0
2015-Jan-30 20:33N 47°38' W 122°23'0 0.0
2015-Jan-30 20:30N 47°38' W 122°23'0 0.0
2015-Jan-30 19:33N 47°38' W 122°23'0 0.0
2015-Jan-30 19:30N 47°38' W 122°23'0 0.0
2015-Jan-30 18:33N 47°38' W 122°23'0 0.0
2015-Jan-30 18:30N 47°38' W 122°23'0 0.0
2015-Jan-30 17:33N 47°38' W 122°23'0 0.0
2015-Jan-30 17:30N 47°38' W 122°23'0 0.0
2015-Jan-30 16:33N 47°38' W 122°23'0 0.0
2015-Jan-30 15:33N 47°38' W 122°23'0 0.0
2015-Jan-30 15:06N 47°38' W 122°23'0 0.0
2015-Jan-30 14:33N 47°38' W 122°23'0 0.0
2015-Jan-30 14:31N 47°38' W 122°23'0 0.0
2015-Jan-30 13:33N 47°38' W 122°23'0 0.0
2015-Jan-30 13:31N 47°38' W 122°23'0 0.0
2015-Jan-30 12:33N 47°38' W 122°23'0 0.1
2015-Jan-30 12:31N 47°38' W 122°23'0 0.0
2015-Jan-30 11:33N 47°38' W 122°23'0 0.0
2015-Jan-30 10:53N 47°38' W 122°23'0 0.0
2015-Jan-30 10:33N 47°38' W 122°23'0 0.0
2015-Jan-30 10:29N 47°38' W 122°23'0 0.0
2015-Jan-30 09:34N 47°38' W 122°23'0 0.0
2015-Jan-30 09:33N 47°38' W 122°23'0 0.0
2015-Jan-30 08:34N 47°38' W 122°23'0 0.0
2015-Jan-30 08:33N 47°38' W 122°23'3 2.6
2015-Jan-30 07:33N 47°39' W 122°27'0 0.0
2015-Jan-30 07:33N 47°39' W 122°27'4 8.6
2015-Jan-30 07:03N 47°43' W 122°28'5 9.4
2015-Jan-30 06:33N 47°48' W 122°28'8 8.2
2015-Jan-30 05:33N 47°55' W 122°31'0 9.6
2015-Jan-30 05:33N 47°56' W 122°32'8 8.3
2015-Jan-30 04:33N 48°02' W 122°39'9 8.2
2015-Jan-30 03:25N 48°10' W 122°47'7 8.0
2015-Jan-30 02:32N 48°11' W 122°57'7 7.1
2015-Jan-30 01:33N 48°11' W 123°08'6 6.5
2015-Jan-30 00:33N 48°10' W 123°17'6 5.6
2015-Jan-29 23:33N 48°08' W 123°25'0 0.1
2015-Jan-29 23:10N 48°08' W 123°25'0 0.1
2015-Jan-29 22:33N 48°08' W 123°25'0 0.0
2015-Jan-29 22:20N 48°08' W 123°25'0 0.0
2015-Jan-29 21:33N 48°08' W 123°25'0 0.0
2015-Jan-29 21:14N 48°08' W 123°25'0 0.0
2015-Jan-29 20:33N 48°08' W 123°25'0 0.0
2015-Jan-29 19:42N 48°08' W 123°25'0 0.3
2015-Jan-29 19:33N 48°08' W 123°25'0 0.0
2015-Jan-29 18:42N 48°08' W 123°25'0 0.0
2015-Jan-29 18:33N 48°08' W 123°25'0 0.0
2015-Jan-29 18:02N 48°08' W 123°25'0 0.0
2015-Jan-29 17:33N 48°08' W 123°25'0 0.0
2015-Jan-29 17:17N 48°08' W 123°25'0 0.0
2015-Jan-29 16:33N 48°08' W 123°25'0 0.0
2015-Jan-29 15:47N 48°08' W 123°25'0 0.0
2015-Jan-29 15:33N 48°08' W 123°25'0 0.0
2015-Jan-29 15:12N 48°08' W 123°25'0 0.0
2015-Jan-29 14:33N 48°08' W 123°25'0 0.0
2015-Jan-29 13:50N 48°08' W 123°25'0 0.0
2015-Jan-29 13:33N 48°08' W 123°25'0 0.1
2015-Jan-29 12:48N 48°08' W 123°25'0 0.2
2015-Jan-29 12:33N 48°08' W 123°25'0 0.0
2015-Jan-29 11:36N 48°08' W 123°25'0 0.1
2015-Jan-29 11:33N 48°08' W 123°25'0 0.2
2015-Jan-29 11:21N 48°08' W 123°25'0 0.0
2015-Jan-29 10:33N 48°08' W 123°25'0 0.0
2015-Jan-29 09:33N 48°08' W 123°25'0 0.0
2015-Jan-29 09:05N 48°08' W 123°25'0 0.0
2015-Jan-29 08:33N 48°08' W 123°25'0 0.0
2015-Jan-29 07:55N 48°08' W 123°25'0 0.0
2015-Jan-29 07:33N 48°08' W 123°25'0 0.0
2015-Jan-29 06:40N 48°08' W 123°25'0 0.0
2015-Jan-29 06:33N 48°08' W 123°25'0 0.0
2015-Jan-29 05:33N 48°08' W 123°25'3 3.7
2015-Jan-29 04:40N 48°09' W 123°20'1 6.5
2015-Jan-29 04:33N 48°09' W 123°19'7 7.3
2015-Jan-29 03:33N 48°12' W 123°09'1 7.8
2015-Jan-29 03:24N 48°12' W 123°08'7 8.3
2015-Jan-29 02:33N 48°12' W 122°57'10 9.5
2015-Jan-29 01:29N 48°09' W 122°43'0 5.9
2015-Jan-29 01:29N 48°09' W 122°43'1010.3
2015-Jan-29 00:33N 48°01' W 122°36'210.6
2015-Jan-29 00:19N 47°59' W 122°34'7 9.0
2015-Jan-28 23:33N 47°53' W 122°28'1 8.7
2015-Jan-28 23:30N 47°53' W 122°28'8 8.2
2015-Jan-28 22:33N 47°45' W 122°26'1 8.0
2015-Jan-28 22:29N 47°45' W 122°26'7 7.7
2015-Jan-28 21:33N 47°38' W 122°24'0 6.0
2015-Jan-28 21:29N 47°38' W 122°23'0 0.2
2015-Jan-28 20:34N 47°38' W 122°23'0 0.0
2015-Jan-28 20:33N 47°38' W 122°23'0 0.0
2015-Jan-28 19:33N 47°38' W 122°23'0 0.0
2015-Jan-28 19:29N 47°38' W 122°23'0 0.0
2015-Jan-28 18:33N 47°38' W 122°23'0 0.0
2015-Jan-28 17:33N 47°38' W 122°23'0 0.0
2015-Jan-28 17:31N 47°38' W 122°23'0 0.0
2015-Jan-28 16:33N 47°38' W 122°23'0 0.0
2015-Jan-28 16:31N 47°38' W 122°23'0 0.0
2015-Jan-28 15:33N 47°38' W 122°23'0 0.0
2015-Jan-28 15:25N 47°38' W 122°23'0 0.0
2015-Jan-28 14:33N 47°38' W 122°23'0 0.0
2015-Jan-28 14:30N 47°38' W 122°23'0 0.0
2015-Jan-28 13:33N 47°38' W 122°23'0 0.1
2015-Jan-28 13:30N 47°38' W 122°23'0 0.0
2015-Jan-28 12:33N 47°38' W 122°23'0 0.1
2015-Jan-28 12:30N 47°38' W 122°23'0 0.0
2015-Jan-28 11:33N 47°38' W 122°23'0 0.0
2015-Jan-28 11:30N 47°38' W 122°23'0 0.0
2015-Jan-28 10:33N 47°38' W 122°23'0 0.0
2015-Jan-28 10:30N 47°38' W 122°23'0 0.0
2015-Jan-28 09:33N 47°38' W 122°23'0 0.0
2015-Jan-28 09:33N 47°38' W 122°23'0 0.0
2015-Jan-28 08:33N 47°38' W 122°23'0 0.0
2015-Jan-28 08:28N 47°38' W 122°23'0 0.0
2015-Jan-28 07:33N 47°38' W 122°23'0 0.0
2015-Jan-28 07:33N 47°38' W 122°23'0 0.0
2015-Jan-28 06:53N 47°38' W 122°23'0 0.0
2015-Jan-28 06:33N 47°38' W 122°23'0 0.0
2015-Jan-28 05:33N 47°38' W 122°23'0 0.0
2015-Jan-28 05:33N 47°38' W 122°23'4 4.5
2015-Jan-28 04:33N 47°41' W 122°28'0 0.0
2015-Jan-28 04:33N 47°41' W 122°28'8 8.2
2015-Jan-28 03:33N 47°49' W 122°28'0 0.0
2015-Jan-28 03:33N 47°49' W 122°28'8 7.9
2015-Jan-28 02:34N 47°56' W 122°33'1 7.9
2015-Jan-28 02:28N 47°56' W 122°34'7 7.7
2015-Jan-28 01:33N 48°02' W 122°39'7 6.8
2015-Jan-28 00:33N 48°08' W 122°44'8 7.9
2015-Jan-27 23:32N 48°11' W 122°55'7 6.8
2015-Jan-27 22:33N 48°12' W 123°05'7 7.1
2015-Jan-27 21:33N 48°09' W 123°15'7 6.8
2015-Jan-27 20:33N 48°08' W 123°25'0 0.1
2015-Jan-27 19:33N 48°08' W 123°25'0 0.0
2015-Jan-27 18:33N 48°08' W 123°25'0 0.0
2015-Jan-27 17:33N 48°08' W 123°25'0 0.0
2015-Jan-27 16:33N 48°08' W 123°25'0 0.0
2015-Jan-27 15:33N 48°08' W 123°25'0 0.0
2015-Jan-27 14:33N 48°08' W 123°25'0 0.0
2015-Jan-27 13:33N 48°08' W 123°25'0 0.0
2015-Jan-27 12:33N 48°08' W 123°25'0 0.0
2015-Jan-27 11:33N 48°08' W 123°25'0 0.0
2015-Jan-27 10:33N 48°08' W 123°25'0 0.0
2015-Jan-27 09:33N 48°08' W 123°25'0 0.0
2015-Jan-27 08:33N 48°08' W 123°25'0 0.0
2015-Jan-27 07:33N 48°08' W 123°25'5 4.5
2015-Jan-27 06:33N 48°09' W 123°19'2 7.3
2015-Jan-27 06:15N 48°10' W 123°15'5 6.8
2015-Jan-27 05:33N 48°12' W 123°09'8 7.8
2015-Jan-27 04:33N 48°12' W 122°58'8 7.4
2015-Jan-27 03:32N 48°11' W 122°47'4 5.6
2015-Jan-27 02:50N 48°08' W 122°42'2 6.1
2015-Jan-27 02:33N 48°07' W 122°40'7 7.3
2015-Jan-27 01:33N 48°01' W 122°36'1 6.9
2015-Jan-27 01:24N 47°60' W 122°35'7 7.8
2015-Jan-27 00:33N 47°55' W 122°28'0 8.6
2015-Jan-27 00:30N 47°54' W 122°28'8 8.5
2015-Jan-26 23:33N 47°46' W 122°26'0 8.4
2015-Jan-26 23:30N 47°46' W 122°26'8 8.4
2015-Jan-26 22:33N 47°38' W 122°25'0 8.0
2015-Jan-26 22:30N 47°38' W 122°24'1 0.9
2015-Jan-26 21:33N 47°38' W 122°23'0 0.0
2015-Jan-26 21:30N 47°38' W 122°23'0 0.0
2015-Jan-26 20:33N 47°38' W 122°23'0 0.0
2015-Jan-26 20:30N 47°38' W 122°23'0 0.0
2015-Jan-26 19:33N 47°38' W 122°23'0 0.1
2015-Jan-26 19:30N 47°38' W 122°23'0 0.0
2015-Jan-26 18:33N 47°38' W 122°23'0 0.1
2015-Jan-26 18:30N 47°38' W 122°23'0 0.0
2015-Jan-26 17:33N 47°38' W 122°23'0 0.0
2015-Jan-26 17:29N 47°38' W 122°23'0 0.0
2015-Jan-26 16:33N 47°38' W 122°23'0 0.0
2015-Jan-26 16:29N 47°38' W 122°23'0 0.0
2015-Jan-26 15:33N 47°38' W 122°23'0 0.0
2015-Jan-26 15:29N 47°38' W 122°23'0 0.0
2015-Jan-26 14:33N 47°38' W 122°23'0 0.0
2015-Jan-26 14:29N 47°38' W 122°23'0 0.0
2015-Jan-26 13:33N 47°38' W 122°23'0 0.0
2015-Jan-26 13:29N 47°38' W 122°23'0 0.0
2015-Jan-26 12:33N 47°38' W 122°23'0 0.0
2015-Jan-26 12:29N 47°38' W 122°23'0 0.0
2015-Jan-26 11:33N 47°38' W 122°23'0 0.0
2015-Jan-26 11:29N 47°38' W 122°23'0 0.0
2015-Jan-26 10:34N 47°38' W 122°23'0 0.0
2015-Jan-26 10:33N 47°38' W 122°23'0 0.0
2015-Jan-26 09:33N 47°38' W 122°23'0 0.0
2015-Jan-26 09:33N 47°38' W 122°23'0 0.0
2015-Jan-26 08:33N 47°38' W 122°23'0 0.0
2015-Jan-26 08:33N 47°38' W 122°23'0 0.0
2015-Jan-26 07:33N 47°38' W 122°23'0 0.0
2015-Jan-26 07:33N 47°38' W 122°23'1 2.0
2015-Jan-26 07:03N 47°38' W 122°24'4 7.2
2015-Jan-26 06:33N 47°41' W 122°28'8 7.7
2015-Jan-26 05:33N 47°48' W 122°28'0 0.0
2015-Jan-26 05:33N 47°48' W 122°28'8 7.9
2015-Jan-26 04:33N 47°56' W 122°32'0 8.2
2015-Jan-26 04:33N 47°56' W 122°32'9 8.9
2015-Jan-26 03:33N 48°03' W 122°39'10 8.8
2015-Jan-26 02:27N 48°10' W 122°49'8 8.4
2015-Jan-26 01:32N 48°11' W 123°00'9 8.6
2015-Jan-26 00:33N 48°11' W 123°13'8 7.9
2015-Jan-25 23:33N 48°08' W 123°24'1 0.8
2015-Jan-25 22:33N 48°08' W 123°25'0 0.0
2015-Jan-25 21:33N 48°08' W 123°25'0 0.0
2015-Jan-25 20:33N 48°08' W 123°25'0 0.0
2015-Jan-25 19:33N 48°08' W 123°25'0 0.0
2015-Jan-25 19:09N 48°08' W 123°25'0 0.0
2015-Jan-25 18:33N 48°08' W 123°25'0 0.0
2015-Jan-25 17:33N 48°08' W 123°25'0 0.0
2015-Jan-25 16:38N 48°08' W 123°25'0 0.0
2015-Jan-25 16:33N 48°08' W 123°25'0 0.0
2015-Jan-25 15:59N 48°08' W 123°25'0 0.0
2015-Jan-25 15:33N 48°08' W 123°25'0 0.0
2015-Jan-25 14:33N 48°08' W 123°25'0 0.0
2015-Jan-25 13:33N 48°08' W 123°25'0 0.0
2015-Jan-25 12:33N 48°08' W 123°25'0 0.0
2015-Jan-25 11:45N 48°08' W 123°25'0 0.0
2015-Jan-25 11:33N 48°08' W 123°25'0 0.0
2015-Jan-25 10:33N 48°08' W 123°25'0 0.0
2015-Jan-25 09:33N 48°08' W 123°25'0 0.0
2015-Jan-25 08:33N 48°08' W 123°25'0 0.0
2015-Jan-25 07:33N 48°08' W 123°25'1 1.4
2015-Jan-25 06:33N 48°08' W 123°23'9 9.3
2015-Jan-25 05:33N 48°12' W 123°10'9 9.0
2015-Jan-25 04:33N 48°12' W 122°57'8 8.2
2015-Jan-25 03:32N 48°10' W 122°45'7 6.7
2015-Jan-25 02:33N 48°05' W 122°38'7 7.2
2015-Jan-25 01:33N 47°58' W 122°34'3 6.8
2015-Jan-25 01:06N 47°56' W 122°31'4 8.0
2015-Jan-25 00:33N 47°53' W 122°28'0 7.9
2015-Jan-25 00:31N 47°52' W 122°28'8 8.6
2015-Jan-24 23:33N 47°44' W 122°26'0 8.7
2015-Jan-24 23:31N 47°44' W 122°26'6 6.5
2015-Jan-24 22:33N 47°38' W 122°23'0 1.6
2015-Jan-24 22:31N 47°38' W 122°23'0 0.1
2015-Jan-24 21:33N 47°38' W 122°23'0 0.0
2015-Jan-24 21:30N 47°38' W 122°23'0 0.0
2015-Jan-24 20:33N 47°38' W 122°23'0 0.0
2015-Jan-24 19:33N 47°38' W 122°23'0 0.0
2015-Jan-24 18:33N 47°38' W 122°23'0 0.0
2015-Jan-24 17:33N 47°38' W 122°23'0 0.0
2015-Jan-24 17:12N 47°38' W 122°23'0 0.0
2015-Jan-24 16:33N 47°38' W 122°23'0 0.0
2015-Jan-24 16:32N 47°38' W 122°23'0 0.0
2015-Jan-24 15:33N 47°38' W 122°23'0 0.0
2015-Jan-24 15:32N 47°38' W 122°23'0 0.0
2015-Jan-24 14:33N 47°38' W 122°23'0 0.0
2015-Jan-24 14:32N 47°38' W 122°23'0 0.0
2015-Jan-24 13:33N 47°38' W 122°23'0 0.0
2015-Jan-24 13:31N 47°38' W 122°23'0 0.0
2015-Jan-24 12:33N 47°38' W 122°23'0 0.0
2015-Jan-24 12:31N 47°38' W 122°23'0 0.0
2015-Jan-24 11:33N 47°38' W 122°23'0 0.0
2015-Jan-24 11:26N 47°38' W 122°23'0 0.0
2015-Jan-24 10:33N 47°38' W 122°23'0 0.0
2015-Jan-24 10:31N 47°38' W 122°23'0 0.0
2015-Jan-24 09:33N 47°38' W 122°23'0 0.0
2015-Jan-24 09:30N 47°38' W 122°23'0 0.0
2015-Jan-24 08:33N 47°38' W 122°23'0 0.0
2015-Jan-24 08:30N 47°38' W 122°23'0 0.0
2015-Jan-24 07:33N 47°38' W 122°23'0 0.0
2015-Jan-24 07:30N 47°38' W 122°23'0 0.0
2015-Jan-24 07:00N 47°38' W 122°23'0 0.0
2015-Jan-24 06:33N 47°38' W 122°23'0 0.0
2015-Jan-24 05:33N 47°38' W 122°23'0 0.0
2015-Jan-24 05:30N 47°38' W 122°23'0 0.0
2015-Jan-24 04:33N 47°38' W 122°23'0 0.0
2015-Jan-24 04:29N 47°38' W 122°23'0 0.0
2015-Jan-24 03:33N 47°38' W 122°23'0 0.0
2015-Jan-24 03:29N 47°38' W 122°23'0 0.0
2015-Jan-24 02:33N 47°38' W 122°23'0 0.0
2015-Jan-24 02:29N 47°38' W 122°23'0 0.0
2015-Jan-24 01:33N 47°38' W 122°23'0 0.0
2015-Jan-24 01:28N 47°38' W 122°23'0 0.0
2015-Jan-24 00:33N 47°38' W 122°23'0 0.0
2015-Jan-24 00:33N 47°38' W 122°23'0 0.0
2015-Jan-23 23:33N 47°38' W 122°23'0 0.0
2015-Jan-23 23:33N 47°38' W 122°23'0 0.0
2015-Jan-23 22:33N 47°38' W 122°23'0 0.0
2015-Jan-23 22:32N 47°38' W 122°23'0 0.0
2015-Jan-23 21:33N 47°38' W 122°23'0 0.4
2015-Jan-23 21:32N 47°38' W 122°23'0 0.0
2015-Jan-23 20:33N 47°38' W 122°23'0 0.0
2015-Jan-23 19:33N 47°38' W 122°23'0 0.0
2015-Jan-23 18:33N 47°38' W 122°23'0 0.0
2015-Jan-23 17:33N 47°38' W 122°23'0 0.0
2015-Jan-23 16:33N 47°38' W 122°23'0 0.0
2015-Jan-23 15:33N 47°38' W 122°23'0 0.0
2015-Jan-23 14:33N 47°38' W 122°23'0 0.0
2015-Jan-23 13:33N 47°38' W 122°23'0 0.0
2015-Jan-23 12:33N 47°38' W 122°23'0 0.0
2015-Jan-23 11:33N 47°38' W 122°23'0 0.0
2015-Jan-23 10:33N 47°38' W 122°23'0 0.0
2015-Jan-23 09:33N 47°38' W 122°23'0 0.0
2015-Jan-23 08:33N 47°38' W 122°23'0 0.0
2015-Jan-23 07:33N 47°38' W 122°23'0 0.0
2015-Jan-23 06:33N 47°38' W 122°23'4 3.8
2015-Jan-23 05:34N 47°40' W 122°28'0 6.8
2015-Jan-23 05:31N 47°40' W 122°28'7 6.9
2015-Jan-23 04:33N 47°47' W 122°27'0 7.0
2015-Jan-23 04:31N 47°47' W 122°27'6 6.6
2015-Jan-23 03:33N 47°53' W 122°30'0 6.0
2015-Jan-23 03:31N 47°53' W 122°30'6 5.9
2015-Jan-23 02:32N 47°58' W 122°36'7 7.2
2015-Jan-23 01:33N 48°04' W 122°40'8 8.1
2015-Jan-23 00:33N 48°10' W 122°48'  
Track history (hours):
 
Tides and Currents Weather Stations Pressure Air Temp Water Temp Dewpoint Dewpoint Depression Visibility Wind Speed Wind Dir Waves Ship Positions

F/V Harvestor

Owner: F/V HARVESTOR INC., EDMONDS, WA. More information available from US FCC via Universal Licensing System and Coast Guard Vessel Documentation Center.

Last reported at 2015-Feb-01 23:33 UTC. Time now 2015-Feb-02 00:17 UTC.
Position N 48°10' W 123°11'.

Length 40 m.

Type: Fishing. MMSI: 367083650.

Date/timePositionNaut miles runAvg speedWind from/ knotsBaromVisibWave heightAir tempDewpointWater temp
2015-Feb-01 23:33N 48°10' W 123°11'3 7.3
2015-Feb-01 23:13N 48°09' W 123°15'5 7.3
2015-Feb-01 22:34N 48°08' W 123°22'2 2.4
2015-Feb-01 21:34N 48°08' W 123°25'0 0.0
2015-Feb-01 20:37N 48°08' W 123°25'0 0.0
2015-Feb-01 20:34N 48°08' W 123°25'0 0.1
2015-Feb-01 20:02N 48°08' W 123°25'0 0.1
2015-Feb-01 19:33N 48°08' W 123°25'0 0.0
2015-Feb-01 18:33N 48°08' W 123°25'0 0.0
2015-Feb-01 17:33N 48°08' W 123°25'0 0.0
2015-Feb-01 16:33N 48°08' W 123°25'0 0.0
2015-Feb-01 15:35N 48°08' W 123°25'0 1.5
2015-Feb-01 15:34N 48°08' W 123°25'0 0.3
2015-Feb-01 15:25N 48°08' W 123°25'0 0.0
2015-Feb-01 14:34N 48°08' W 123°25'0 0.0
2015-Feb-01 14:23N 48°08' W 123°25'0 0.0
2015-Feb-01 13:34N 48°08' W 123°25'6 5.9
2015-Feb-01 12:33N 48°10' W 123°17'2 8.6
2015-Feb-01 12:19N 48°11' W 123°14'6 7.7
2015-Feb-01 11:33N 48°13' W 123°06'7 7.7
2015-Feb-01 10:39N 48°12' W 122°55'1 7.9
2015-Feb-01 10:33N 48°12' W 122°54'4 7.3
2015-Feb-01 10:04N 48°12' W 122°49'3 5.3
2015-Feb-01 09:34N 48°11' W 122°45'4 3.9
2015-Feb-01 08:33N 48°08' W 122°41'5 5.2
2015-Feb-01 07:33N 48°03' W 122°38'6 6.4
2015-Feb-01 06:34N 47°58' W 122°33'0 9.2
2015-Feb-01 06:33N 47°58' W 122°33'7 7.1
2015-Feb-01 05:34N 47°52' W 122°28'1 7.7
2015-Feb-01 05:28N 47°51' W 122°27'7 7.7
2015-Feb-01 04:33N 47°44' W 122°26'1 7.3
2015-Feb-01 04:29N 47°44' W 122°26'6 6.7
2015-Feb-01 03:33N 47°38' W 122°23'0 2.1
2015-Feb-01 03:29N 47°38' W 122°23'0 0.1
2015-Feb-01 02:33N 47°38' W 122°23'0 0.0
2015-Feb-01 02:29N 47°38' W 122°23'0 0.0
2015-Feb-01 01:33N 47°38' W 122°23'0 0.0
2015-Feb-01 01:29N 47°38' W 122°23'0 0.0
2015-Feb-01 00:33N 47°38' W 122°23'0 0.0
2015-Feb-01 00:28N 47°38' W 122°23'0 0.0
2015-Jan-31 23:33N 47°38' W 122°23'0 0.0
2015-Jan-31 23:29N 47°38' W 122°23'0 0.0
2015-Jan-31 22:33N 47°38' W 122°23'0 0.0
2015-Jan-31 22:28N 47°38' W 122°23'0 0.0
2015-Jan-31 21:33N 47°38' W 122°23'0 0.0
2015-Jan-31 21:33N 47°38' W 122°23'0 0.0
2015-Jan-31 20:33N 47°38' W 122°23'0 0.0
2015-Jan-31 20:33N 47°38' W 122°23'0 0.0
2015-Jan-31 19:33N 47°38' W 122°23'0 0.0
2015-Jan-31 18:33N 47°38' W 122°23'0 0.0
2015-Jan-31 18:32N 47°38' W 122°23'0 0.0
2015-Jan-31 17:33N 47°38' W 122°23'0 0.0
2015-Jan-31 17:33N 47°38' W 122°23'0 0.0
2015-Jan-31 16:33N 47°38' W 122°23'0 0.0
2015-Jan-31 16:33N 47°38' W 122°23'0 0.0
2015-Jan-31 15:33N 47°38' W 122°23'0 0.0
2015-Jan-31 15:33N 47°38' W 122°23'0 0.0
2015-Jan-31 14:33N 47°38' W 122°23'0 0.0
2015-Jan-31 14:06N 47°38' W 122°23'0 0.0
2015-Jan-31 13:33N 47°38' W 122°23'0 0.0
2015-Jan-31 13:31N 47°38' W 122°23'0 0.0
2015-Jan-31 12:33N 47°38' W 122°23'0 0.0
2015-Jan-31 12:31N 47°38' W 122°23'0 0.0
2015-Jan-31 11:33N 47°38' W 122°23'0 0.0
2015-Jan-31 11:30N 47°38' W 122°23'0 0.0
2015-Jan-31 10:33N 47°38' W 122°23'0 0.0
2015-Jan-31 10:25N 47°38' W 122°23'0 0.0
2015-Jan-31 09:33N 47°38' W 122°23'0 0.0
2015-Jan-31 09:31N 47°38' W 122°23'0 0.0
2015-Jan-31 08:33N 47°38' W 122°23'0 0.0
2015-Jan-31 08:29N 47°38' W 122°23'0 0.0
2015-Jan-31 07:33N 47°38' W 122°23'0 0.0
2015-Jan-31 07:29N 47°38' W 122°23'0 0.0
2015-Jan-31 06:33N 47°38' W 122°23'0 0.0
2015-Jan-31 06:07N 47°38' W 122°23'0 0.0
2015-Jan-31 05:33N 47°38' W 122°23'0 0.0
2015-Jan-31 05:33N 47°38' W 122°23'0 0.0
2015-Jan-31 04:33N 47°38' W 122°23'0 0.0
2015-Jan-31 04:32N 47°38' W 122°23'0 0.0
2015-Jan-31 03:33N 47°38' W 122°23'0 0.0
2015-Jan-31 03:32N 47°38' W 122°23'0 0.0
2015-Jan-31 02:37N 47°38' W 122°23'0 0.0
2015-Jan-31 02:33N 47°38' W 122°23'0 0.0
2015-Jan-31 01:33N 47°38' W 122°23'0 0.0
2015-Jan-31 01:11N 47°38' W 122°23'0 0.0
2015-Jan-31 00:36N 47°38' W 122°23'0 0.0
2015-Jan-31 00:33N 47°38' W 122°23'0 0.0
2015-Jan-30 23:33N 47°38' W 122°23'0 0.0
2015-Jan-30 23:31N 47°38' W 122°23'0 0.0
2015-Jan-30 22:33N 47°38' W 122°23'0 0.0
2015-Jan-30 22:31N 47°38' W 122°23'0 0.0
2015-Jan-30 21:33N 47°38' W 122°23'0 0.0
2015-Jan-30 21:31N 47°38' W 122°23'0 0.0
2015-Jan-30 20:33N 47°38' W 122°23'0 0.0
2015-Jan-30 20:30N 47°38' W 122°23'0 0.0
2015-Jan-30 19:33N 47°38' W 122°23'0 0.0
2015-Jan-30 19:30N 47°38' W 122°23'0 0.0
2015-Jan-30 18:33N 47°38' W 122°23'0 0.0
2015-Jan-30 18:30N 47°38' W 122°23'0 0.0
2015-Jan-30 17:33N 47°38' W 122°23'0 0.0
2015-Jan-30 17:30N 47°38' W 122°23'0 0.0
2015-Jan-30 16:33N 47°38' W 122°23'0 0.0
2015-Jan-30 15:33N 47°38' W 122°23'0 0.0
2015-Jan-30 15:06N 47°38' W 122°23'0 0.0
2015-Jan-30 14:33N 47°38' W 122°23'0 0.0
2015-Jan-30 14:31N 47°38' W 122°23'0 0.0
2015-Jan-30 13:33N 47°38' W 122°23'0 0.0
2015-Jan-30 13:31N 47°38' W 122°23'0 0.0
2015-Jan-30 12:33N 47°38' W 122°23'0 0.1
2015-Jan-30 12:31N 47°38' W 122°23'0 0.0
2015-Jan-30 11:33N 47°38' W 122°23'0 0.0
2015-Jan-30 10:53N 47°38' W 122°23'0 0.0
2015-Jan-30 10:33N 47°38' W 122°23'0 0.0
2015-Jan-30 10:29N 47°38' W 122°23'0 0.0
2015-Jan-30 09:34N 47°38' W 122°23'0 0.0
2015-Jan-30 09:33N 47°38' W 122°23'0 0.0
2015-Jan-30 08:34N 47°38' W 122°23'0 0.0
2015-Jan-30 08:33N 47°38' W 122°23'3 2.6
2015-Jan-30 07:33N 47°39' W 122°27'0 0.0
2015-Jan-30 07:33N 47°39' W 122°27'4 8.6
2015-Jan-30 07:03N 47°43' W 122°28'5 9.4
2015-Jan-30 06:33N 47°48' W 122°28'8 8.2
2015-Jan-30 05:33N 47°55' W 122°31'0 9.6
2015-Jan-30 05:33N 47°56' W 122°32'8 8.3
2015-Jan-30 04:33N 48°02' W 122°39'9 8.2
2015-Jan-30 03:25N 48°10' W 122°47'7 8.0
2015-Jan-30 02:32N 48°11' W 122°57'7 7.1
2015-Jan-30 01:33N 48°11' W 123°08'6 6.5
2015-Jan-30 00:33N 48°10' W 123°17'6 5.6
2015-Jan-29 23:33N 48°08' W 123°25'0 0.1
2015-Jan-29 23:10N 48°08' W 123°25'0 0.1
2015-Jan-29 22:33N 48°08' W 123°25'0 0.0
2015-Jan-29 22:20N 48°08' W 123°25'0 0.0
2015-Jan-29 21:33N 48°08' W 123°25'0 0.0
2015-Jan-29 21:14N 48°08' W 123°25'0 0.0
2015-Jan-29 20:33N 48°08' W 123°25'0 0.0
2015-Jan-29 19:42N 48°08' W 123°25'0 0.3
2015-Jan-29 19:33N 48°08' W 123°25'0 0.0
2015-Jan-29 18:42N 48°08' W 123°25'0 0.0
2015-Jan-29 18:33N 48°08' W 123°25'0 0.0
2015-Jan-29 18:02N 48°08' W 123°25'0 0.0
2015-Jan-29 17:33N 48°08' W 123°25'0 0.0
2015-Jan-29 17:17N 48°08' W 123°25'0 0.0
2015-Jan-29 16:33N 48°08' W 123°25'0 0.0
2015-Jan-29 15:47N 48°08' W 123°25'0 0.0
2015-Jan-29 15:33N 48°08' W 123°25'0 0.0
2015-Jan-29 15:12N 48°08' W 123°25'0 0.0
2015-Jan-29 14:33N 48°08' W 123°25'0 0.0
2015-Jan-29 13:50N 48°08' W 123°25'0 0.0
2015-Jan-29 13:33N 48°08' W 123°25'0 0.1
2015-Jan-29 12:48N 48°08' W 123°25'0 0.2
2015-Jan-29 12:33N 48°08' W 123°25'0 0.0
2015-Jan-29 11:36N 48°08' W 123°25'0 0.1
2015-Jan-29 11:33N 48°08' W 123°25'0 0.2
2015-Jan-29 11:21N 48°08' W 123°25'0 0.0
2015-Jan-29 10:33N 48°08' W 123°25'0 0.0
2015-Jan-29 09:33N 48°08' W 123°25'0 0.0
2015-Jan-29 09:05N 48°08' W 123°25'0 0.0
2015-Jan-29 08:33N 48°08' W 123°25'0 0.0
2015-Jan-29 07:55N 48°08' W 123°25'0 0.0
2015-Jan-29 07:33N 48°08' W 123°25'0 0.0
2015-Jan-29 06:40N 48°08' W 123°25'0 0.0
2015-Jan-29 06:33N 48°08' W 123°25'0 0.0
2015-Jan-29 05:33N 48°08' W 123°25'3 3.7
2015-Jan-29 04:40N 48°09' W 123°20'1 6.5
2015-Jan-29 04:33N 48°09' W 123°19'7 7.3
2015-Jan-29 03:33N 48°12' W 123°09'1 7.8
2015-Jan-29 03:24N 48°12' W 123°08'7 8.3
2015-Jan-29 02:33N 48°12' W 122°57'10 9.5
2015-Jan-29 01:29N 48°09' W 122°43'0 5.9
2015-Jan-29 01:29N 48°09' W 122°43'1010.3
2015-Jan-29 00:33N 48°01' W 122°36'210.6
2015-Jan-29 00:19N 47°59' W 122°34'7 9.0
2015-Jan-28 23:33N 47°53' W 122°28'1 8.7
2015-Jan-28 23:30N 47°53' W 122°28'8 8.2
2015-Jan-28 22:33N 47°45' W 122°26'1 8.0
2015-Jan-28 22:29N 47°45' W 122°26'7 7.7
2015-Jan-28 21:33N 47°38' W 122°24'0 6.0
2015-Jan-28 21:29N 47°38' W 122°23'0 0.2
2015-Jan-28 20:34N 47°38' W 122°23'0 0.0
2015-Jan-28 20:33N 47°38' W 122°23'0 0.0
2015-Jan-28 19:33N 47°38' W 122°23'0 0.0
2015-Jan-28 19:29N 47°38' W 122°23'0 0.0
2015-Jan-28 18:33N 47°38' W 122°23'0 0.0
2015-Jan-28 17:33N 47°38' W 122°23'0 0.0
2015-Jan-28 17:31N 47°38' W 122°23'0 0.0
2015-Jan-28 16:33N 47°38' W 122°23'0 0.0
2015-Jan-28 16:31N 47°38' W 122°23'0 0.0
2015-Jan-28 15:33N 47°38' W 122°23'0 0.0
2015-Jan-28 15:25N 47°38' W 122°23'0 0.0
2015-Jan-28 14:33N 47°38' W 122°23'0 0.0
2015-Jan-28 14:30N 47°38' W 122°23'0 0.0
2015-Jan-28 13:33N 47°38' W 122°23'0 0.1
2015-Jan-28 13:30N 47°38' W 122°23'0 0.0
2015-Jan-28 12:33N 47°38' W 122°23'0 0.1
2015-Jan-28 12:30N 47°38' W 122°23'0 0.0
2015-Jan-28 11:33N 47°38' W 122°23'0 0.0
2015-Jan-28 11:30N 47°38' W 122°23'0 0.0
2015-Jan-28 10:33N 47°38' W 122°23'0 0.0
2015-Jan-28 10:30N 47°38' W 122°23'0 0.0
2015-Jan-28 09:33N 47°38' W 122°23'0 0.0
2015-Jan-28 09:33N 47°38' W 122°23'0 0.0
2015-Jan-28 08:33N 47°38' W 122°23'0 0.0
2015-Jan-28 08:28N 47°38' W 122°23'0 0.0
2015-Jan-28 07:33N 47°38' W 122°23'0 0.0
2015-Jan-28 07:33N 47°38' W 122°23'0 0.0
2015-Jan-28 06:53N 47°38' W 122°23'0 0.0
2015-Jan-28 06:33N 47°38' W 122°23'0 0.0
2015-Jan-28 05:33N 47°38' W 122°23'0 0.0
2015-Jan-28 05:33N 47°38' W 122°23'4 4.5
2015-Jan-28 04:33N 47°41' W 122°28'0 0.0
2015-Jan-28 04:33N 47°41' W 122°28'8 8.2
2015-Jan-28 03:33N 47°49' W 122°28'0 0.0
2015-Jan-28 03:33N 47°49' W 122°28'8 7.9
2015-Jan-28 02:34N 47°56' W 122°33'1 7.9
2015-Jan-28 02:28N 47°56' W 122°34'7 7.7
2015-Jan-28 01:33N 48°02' W 122°39'7 6.8
2015-Jan-28 00:33N 48°08' W 122°44'8 7.9
2015-Jan-27 23:32N 48°11' W 122°55'7 6.8
2015-Jan-27 22:33N 48°12' W 123°05'7 7.1
2015-Jan-27 21:33N 48°09' W 123°15'7 6.8
2015-Jan-27 20:33N 48°08' W 123°25'0 0.1
2015-Jan-27 19:33N 48°08' W 123°25'0 0.0
2015-Jan-27 18:33N 48°08' W 123°25'0 0.0
2015-Jan-27 17:33N 48°08' W 123°25'0 0.0
2015-Jan-27 16:33N 48°08' W 123°25'0 0.0
2015-Jan-27 15:33N 48°08' W 123°25'0 0.0
2015-Jan-27 14:33N 48°08' W 123°25'0 0.0
2015-Jan-27 13:33N 48°08' W 123°25'0 0.0
2015-Jan-27 12:33N 48°08' W 123°25'0 0.0
2015-Jan-27 11:33N 48°08' W 123°25'0 0.0
2015-Jan-27 10:33N 48°08' W 123°25'0 0.0
2015-Jan-27 09:33N 48°08' W 123°25'0 0.0
2015-Jan-27 08:33N 48°08' W 123°25'0 0.0
2015-Jan-27 07:33N 48°08' W 123°25'5 4.5
2015-Jan-27 06:33N 48°09' W 123°19'2 7.3
2015-Jan-27 06:15N 48°10' W 123°15'5 6.8
2015-Jan-27 05:33N 48°12' W 123°09'8 7.8
2015-Jan-27 04:33N 48°12' W 122°58'8 7.4
2015-Jan-27 03:32N 48°11' W 122°47'4 5.6
2015-Jan-27 02:50N 48°08' W 122°42'2 6.1
2015-Jan-27 02:33N 48°07' W 122°40'7 7.3
2015-Jan-27 01:33N 48°01' W 122°36'1 6.9
2015-Jan-27 01:24N 47°60' W 122°35'7 7.8
2015-Jan-27 00:33N 47°55' W 122°28'0 8.6
2015-Jan-27 00:30N 47°54' W 122°28'8 8.5
2015-Jan-26 23:33N 47°46' W 122°26'0 8.4
2015-Jan-26 23:30N 47°46' W 122°26'8 8.4
2015-Jan-26 22:33N 47°38' W 122°25'0 8.0
2015-Jan-26 22:30N 47°38' W 122°24'1 0.9
2015-Jan-26 21:33N 47°38' W 122°23'0 0.0
2015-Jan-26 21:30N 47°38' W 122°23'0 0.0
2015-Jan-26 20:33N 47°38' W 122°23'0 0.0
2015-Jan-26 20:30N 47°38' W 122°23'0 0.0
2015-Jan-26 19:33N 47°38' W 122°23'0 0.1
2015-Jan-26 19:30N 47°38' W 122°23'0 0.0
2015-Jan-26 18:33N 47°38' W 122°23'0 0.1
2015-Jan-26 18:30N 47°38' W 122°23'0 0.0
2015-Jan-26 17:33N 47°38' W 122°23'0 0.0
2015-Jan-26 17:29N 47°38' W 122°23'0 0.0
2015-Jan-26 16:33N 47°38' W 122°23'0 0.0
2015-Jan-26 16:29N 47°38' W 122°23'0 0.0
2015-Jan-26 15:33N 47°38' W 122°23'0 0.0
2015-Jan-26 15:29N 47°38' W 122°23'0 0.0
2015-Jan-26 14:33N 47°38' W 122°23'0 0.0
2015-Jan-26 14:29N 47°38' W 122°23'0 0.0
2015-Jan-26 13:33N 47°38' W 122°23'0 0.0
2015-Jan-26 13:29N 47°38' W 122°23'0 0.0
2015-Jan-26 12:33N 47°38' W 122°23'0 0.0
2015-Jan-26 12:29N 47°38' W 122°23'0 0.0
2015-Jan-26 11:33N 47°38' W 122°23'0 0.0
2015-Jan-26 11:29N 47°38' W 122°23'0 0.0
2015-Jan-26 10:34N 47°38' W 122°23'0 0.0
2015-Jan-26 10:33N 47°38' W 122°23'0 0.0
2015-Jan-26 09:33N 47°38' W 122°23'0 0.0
2015-Jan-26 09:33N 47°38' W 122°23'0 0.0
2015-Jan-26 08:33N 47°38' W 122°23'0 0.0
2015-Jan-26 08:33N 47°38' W 122°23'0 0.0
2015-Jan-26 07:33N 47°38' W 122°23'0 0.0
2015-Jan-26 07:33N 47°38' W 122°23'1 2.0
2015-Jan-26 07:03N 47°38' W 122°24'4 7.2
2015-Jan-26 06:33N 47°41' W 122°28'8 7.7
2015-Jan-26 05:33N 47°48' W 122°28'0 0.0
2015-Jan-26 05:33N 47°48' W 122°28'8 7.9
2015-Jan-26 04:33N 47°56' W 122°32'0 8.2
2015-Jan-26 04:33N 47°56' W 122°32'9 8.9
2015-Jan-26 03:33N 48°03' W 122°39'10 8.8
2015-Jan-26 02:27N 48°10' W 122°49'8 8.4
2015-Jan-26 01:32N 48°11' W 123°00'9 8.6
2015-Jan-26 00:33N 48°11' W 123°13'8 7.9
2015-Jan-25 23:33N 48°08' W 123°24'1 0.8
2015-Jan-25 22:33N 48°08' W 123°25'0 0.0
2015-Jan-25 21:33N 48°08' W 123°25'0 0.0
2015-Jan-25 20:33N 48°08' W 123°25'0 0.0
2015-Jan-25 19:33N 48°08' W 123°25'0 0.0
2015-Jan-25 19:09N 48°08' W 123°25'0 0.0
2015-Jan-25 18:33N 48°08' W 123°25'0 0.0
2015-Jan-25 17:33N 48°08' W 123°25'0 0.0
2015-Jan-25 16:38N 48°08' W 123°25'0 0.0
2015-Jan-25 16:33N 48°08' W 123°25'0 0.0
2015-Jan-25 15:59N 48°08' W 123°25'0 0.0
2015-Jan-25 15:33N 48°08' W 123°25'0 0.0
2015-Jan-25 14:33N 48°08' W 123°25'0 0.0
2015-Jan-25 13:33N 48°08' W 123°25'0 0.0
2015-Jan-25 12:33N 48°08' W 123°25'0 0.0
2015-Jan-25 11:45N 48°08' W 123°25'0 0.0
2015-Jan-25 11:33N 48°08' W 123°25'0 0.0
2015-Jan-25 10:33N 48°08' W 123°25'0 0.0
2015-Jan-25 09:33N 48°08' W 123°25'0 0.0
2015-Jan-25 08:33N 48°08' W 123°25'0 0.0
2015-Jan-25 07:33N 48°08' W 123°25'1 1.4
2015-Jan-25 06:33N 48°08' W 123°23'9 9.3
2015-Jan-25 05:33N 48°12' W 123°10'9 9.0
2015-Jan-25 04:33N 48°12' W 122°57'8 8.2
2015-Jan-25 03:32N 48°10' W 122°45'7 6.7
2015-Jan-25 02:33N 48°05' W 122°38'7 7.2
2015-Jan-25 01:33N 47°58' W 122°34'3 6.8
2015-Jan-25 01:06N 47°56' W 122°31'4 8.0
2015-Jan-25 00:33N 47°53' W 122°28'0 7.9
2015-Jan-25 00:31N 47°52' W 122°28'8 8.6
2015-Jan-24 23:33N 47°44' W 122°26'0 8.7
2015-Jan-24 23:31N 47°44' W 122°26'6 6.5
2015-Jan-24 22:33N 47°38' W 122°23'0 1.6
2015-Jan-24 22:31N 47°38' W 122°23'0 0.1
2015-Jan-24 21:33N 47°38' W 122°23'0 0.0
2015-Jan-24 21:30N 47°38' W 122°23'0 0.0
2015-Jan-24 20:33N 47°38' W 122°23'0 0.0
2015-Jan-24 19:33N 47°38' W 122°23'0 0.0
2015-Jan-24 18:33N 47°38' W 122°23'0 0.0
2015-Jan-24 17:33N 47°38' W 122°23'0 0.0
2015-Jan-24 17:12N 47°38' W 122°23'0 0.0
2015-Jan-24 16:33N 47°38' W 122°23'0 0.0
2015-Jan-24 16:32N 47°38' W 122°23'0 0.0
2015-Jan-24 15:33N 47°38' W 122°23'0 0.0
2015-Jan-24 15:32N 47°38' W 122°23'0 0.0
2015-Jan-24 14:33N 47°38' W 122°23'0 0.0
2015-Jan-24 14:32N 47°38' W 122°23'0 0.0
2015-Jan-24 13:33N 47°38' W 122°23'0 0.0
2015-Jan-24 13:31N 47°38' W 122°23'0 0.0
2015-Jan-24 12:33N 47°38' W 122°23'0 0.0
2015-Jan-24 12:31N 47°38' W 122°23'0 0.0
2015-Jan-24 11:33N 47°38' W 122°23'0 0.0
2015-Jan-24 11:26N 47°38' W 122°23'0 0.0
2015-Jan-24 10:33N 47°38' W 122°23'0 0.0
2015-Jan-24 10:31N 47°38' W 122°23'0 0.0
2015-Jan-24 09:33N 47°38' W 122°23'0 0.0
2015-Jan-24 09:30N 47°38' W 122°23'0 0.0
2015-Jan-24 08:33N 47°38' W 122°23'0 0.0
2015-Jan-24 08:30N 47°38' W 122°23'0 0.0
2015-Jan-24 07:33N 47°38' W 122°23'0 0.0
2015-Jan-24 07:30N 47°38' W 122°23'0 0.0
2015-Jan-24 07:00N 47°38' W 122°23'0 0.0
2015-Jan-24 06:33N 47°38' W 122°23'0 0.0
2015-Jan-24 05:33N 47°38' W 122°23'0 0.0
2015-Jan-24 05:30N 47°38' W 122°23'0 0.0
2015-Jan-24 04:33N 47°38' W 122°23'0 0.0
2015-Jan-24 04:29N 47°38' W 122°23'0 0.0
2015-Jan-24 03:33N 47°38' W 122°23'0 0.0
2015-Jan-24 03:29N 47°38' W 122°23'0 0.0
2015-Jan-24 02:33N 47°38' W 122°23'0 0.0
2015-Jan-24 02:29N 47°38' W 122°23'0 0.0
2015-Jan-24 01:33N 47°38' W 122°23'0 0.0
2015-Jan-24 01:28N 47°38' W 122°23'0 0.0
2015-Jan-24 00:33N 47°38' W 122°23'0 0.0
2015-Jan-24 00:33N 47°38' W 122°23'0 0.0
2015-Jan-23 23:33N 47°38' W 122°23'0 0.0
2015-Jan-23 23:33N 47°38' W 122°23'0 0.0
2015-Jan-23 22:33N 47°38' W 122°23'0 0.0
2015-Jan-23 22:32N 47°38' W 122°23'0 0.0
2015-Jan-23 21:33N 47°38' W 122°23'0 0.4
2015-Jan-23 21:32N 47°38' W 122°23'0 0.0
2015-Jan-23 20:33N 47°38' W 122°23'0 0.0
2015-Jan-23 19:33N 47°38' W 122°23'0 0.0
2015-Jan-23 18:33N 47°38' W 122°23'0 0.0
2015-Jan-23 17:33N 47°38' W 122°23'0 0.0
2015-Jan-23 16:33N 47°38' W 122°23'0 0.0
2015-Jan-23 15:33N 47°38' W 122°23'0 0.0
2015-Jan-23 14:33N 47°38' W 122°23'0 0.0
2015-Jan-23 13:33N 47°38' W 122°23'0 0.0
2015-Jan-23 12:33N 47°38' W 122°23'0 0.0
2015-Jan-23 11:33N 47°38' W 122°23'0 0.0
2015-Jan-23 10:33N 47°38' W 122°23'0 0.0
2015-Jan-23 09:33N 47°38' W 122°23'0 0.0
2015-Jan-23 08:33N 47°38' W 122°23'0 0.0
2015-Jan-23 07:33N 47°38' W 122°23'0 0.0
2015-Jan-23 06:33N 47°38' W 122°23'4 3.8
2015-Jan-23 05:34N 47°40' W 122°28'0 6.8
2015-Jan-23 05:31N 47°40' W 122°28'7 6.9
2015-Jan-23 04:33N 47°47' W 122°27'0 7.0
2015-Jan-23 04:31N 47°47' W 122°27'6 6.6
2015-Jan-23 03:33N 47°53' W 122°30'0 6.0
2015-Jan-23 03:31N 47°53' W 122°30'6 5.9
2015-Jan-23 02:32N 47°58' W 122°36'7 7.2
2015-Jan-23 01:33N 48°04' W 122°40'8 8.1
2015-Jan-23 00:33N 48°10' W 122°48'  

Dump ship's entire track history